Time;durP1;ratioP1;P1;durP2;ratioP2;P2;SDS_P1;SDS_P2;PMS_P1;PMS_P2;Temp;Humidity;BMP_temperature;BMP_pressure;BME280_temperature;BME280_humidity;BME280_pressure;Samples;Min_cycle;Max_cycle;Signal;HPM_P1;HPM_P2
2023/06/29 00:01:47;;;;;;;4.00;2.53;;;28.10;54.50;;;;;;4963868;28;20874;-83
2023/06/29 00:04:18;;;;;;;2.30;2.20;;;28.10;54.50;;;;;;4965396;28;20468;-83
2023/06/29 00:06:46;;;;;;;2.33;2.20;;;28.10;54.50;;;;;;4970351;28;21316;-83
2023/06/29 00:09:16;;;;;;;2.60;2.50;;;28.10;54.50;;;;;;4972170;28;20463;-83
2023/06/29 00:11:44;;;;;;;3.80;2.43;;;28.10;54.50;;;;;;4962882;28;20465;-83
2023/06/29 00:14:13;;;;;;;5.03;2.43;;;28.10;54.50;;;;;;4973175;28;20502;-83
2023/06/29 00:16:42;;;;;;;2.63;2.43;;;28.10;54.50;;;;;;4972406;28;20455;-83
2023/06/29 00:19:11;;;;;;;2.30;2.20;;;28.10;54.40;;;;;;4973217;28;21009;-83
2023/06/29 00:21:39;;;;;;;2.90;2.50;;;28.10;54.50;;;;;;4962979;28;20471;-83
2023/06/29 00:24:10;;;;;;;3.10;2.90;;;28.10;54.50;;;;;;4972354;28;20565;-83
2023/06/29 00:26:41;;;;;;;2.90;2.70;;;28.10;54.50;;;;;;4972473;28;20455;-83
2023/06/29 00:29:09;;;;;;;2.80;2.60;;;28.10;54.40;;;;;;4972115;28;20453;-83
2023/06/29 00:31:37;;;;;;;2.70;2.60;;;28.10;54.20;;;;;;4944842;28;20523;-83
2023/06/29 00:34:05;;;;;;;2.90;2.50;;;28.00;54.10;;;;;;4970825;28;20532;-83
2023/06/29 00:36:33;;;;;;;2.80;2.60;;;28.00;54.10;;;;;;4956354;28;21015;-83
2023/06/29 00:39:02;;;;;;;2.80;2.60;;;28.00;54.20;;;;;;4970364;28;20466;-83
2023/06/29 00:41:31;;;;;;;2.57;2.43;;;27.90;54.30;;;;;;4953569;28;20467;-83
2023/06/29 00:44:01;;;;;;;2.40;2.30;;;27.90;54.20;;;;;;4955826;28;20477;-83
2023/06/29 00:46:30;;;;;;;2.90;2.70;;;27.90;54.30;;;;;;4970721;28;20475;-83
2023/06/29 00:48:59;;;;;;;2.60;2.40;;;27.90;54.30;;;;;;4957196;28;21054;-83
2023/06/29 00:51:29;;;;;;;2.53;2.43;;;27.90;54.30;;;;;;4968002;28;20465;-83
2023/06/29 00:53:58;;;;;;;2.57;2.40;;;27.90;54.50;;;;;;4950587;28;20903;-83
2023/06/29 00:56:27;;;;;;;2.60;2.40;;;27.90;54.40;;;;;;4965238;28;20477;-83
2023/06/29 00:58:55;;;;;;;2.40;2.20;;;27.90;54.50;;;;;;4968551;28;20491;-83
2023/06/29 01:01:26;;;;;;;2.33;2.13;;;27.80;54.40;;;;;;4966306;28;20525;-83
2023/06/29 01:03:57;;;;;;;2.67;2.50;;;27.80;54.50;;;;;;4970294;28;20469;-83
2023/06/29 01:06:31;;;;;;;2.57;2.40;;;27.80;54.40;;;;;;4959621;28;20503;-83
2023/06/29 01:09:04;;;;;;;2.67;2.43;;;27.80;54.40;;;;;;4970188;28;20469;-83
2023/06/29 01:11:33;;;;;;;2.87;2.60;;;27.80;54.40;;;;;;4956434;28;20469;-82
2023/06/29 01:14:05;;;;;;;2.63;2.43;;;27.80;54.50;;;;;;4970614;28;20527;-83
2023/06/29 01:16:36;;;;;;;3.20;2.83;;;27.80;54.40;;;;;;4968018;28;20466;-83
2023/06/29 01:19:10;;;;;;;2.47;2.33;;;27.80;54.40;;;;;;4970410;28;20482;-82
2023/06/29 01:21:54;;;;;;;3.00;2.80;;;27.80;54.30;;;;;;4969469;28;20507;-83
2023/06/29 01:24:26;;;;;;;2.63;2.43;;;27.80;54.30;;;;;;4964045;28;20838;-83
2023/06/29 01:27:03;;;;;;;2.53;2.30;;;27.80;54.40;;;;;;4960716;28;20544;-83
2023/06/29 01:29:32;;;;;;;2.63;2.50;;;27.80;54.40;;;;;;4955202;28;20550;-83
2023/06/29 01:32:03;;;;;;;3.20;3.00;;;27.80;54.40;;;;;;4966923;28;20462;-83
2023/06/29 01:34:32;;;;;;;3.33;2.60;;;27.70;54.40;;;;;;4971191;28;20538;-83
2023/06/29 01:37:05;;;;;;;2.57;2.37;;;27.70;54.40;;;;;;4960462;28;21034;-82
2023/06/29 01:39:41;;;;;;;2.60;2.40;;;27.70;54.40;;;;;;4970712;28;20475;-83
2023/06/29 01:42:12;;;;;;;3.30;3.03;;;27.70;54.40;;;;;;4962230;28;20537;-82
2023/06/29 01:44:40;;;;;;;3.40;2.77;;;27.70;54.30;;;;;;4971691;28;20479;-82
2023/06/29 01:47:09;;;;;;;2.80;2.60;;;27.70;54.30;;;;;;4969209;28;20463;-83
2023/06/29 01:49:38;;;;;;;2.70;2.50;;;27.70;54.30;;;;;;4969647;28;20469;-83
2023/06/29 01:52:07;;;;;;;2.60;2.40;;;27.70;54.30;;;;;;4964190;28;20787;-83
2023/06/29 01:54:35;;;;;;;2.73;2.53;;;27.70;54.20;;;;;;4968491;28;20949;-83
2023/06/29 01:57:06;;;;;;;2.67;2.57;;;27.70;54.00;;;;;;4968468;28;20974;-82
2023/06/29 01:59:35;;;;;;;2.90;2.70;;;27.70;54.00;;;;;;4955080;28;20469;-83
2023/06/29 02:02:06;;;;;;;2.70;2.50;;;27.60;54.10;;;;;;4970535;28;20518;-83
2023/06/29 02:04:35;;;;;;;2.77;2.63;;;27.60;54.20;;;;;;4959102;28;20970;-83
2023/06/29 02:07:03;;;;;;;2.37;2.27;;;27.60;54.30;;;;;;4973298;28;20898;-83
2023/06/29 02:09:31;;;;;;;2.80;2.53;;;27.60;54.30;;;;;;4974098;28;20473;-83
2023/06/29 02:11:59;;;;;;;2.60;2.40;;;27.50;54.30;;;;;;4961527;28;20462;-82
2023/06/29 02:14:29;;;;;;;3.33;2.63;;;27.50;54.40;;;;;;4959203;28;20508;-83
2023/06/29 02:16:58;;;;;;;3.10;2.10;;;27.50;54.40;;;;;;4968587;28;20540;-83
2023/06/29 02:19:26;;;;;;;2.50;2.40;;;27.50;54.40;;;;;;4975416;28;20446;-83
2023/06/29 02:21:54;;;;;;;2.77;2.60;;;27.50;54.40;;;;;;4964098;28;20513;-83
2023/06/29 02:24:24;;;;;;;3.40;3.20;;;27.50;54.40;;;;;;4975866;28;20477;-83
2023/06/29 02:26:52;;;;;;;3.30;3.10;;;27.50;54.40;;;;;;4971899;28;20472;-83
2023/06/29 02:29:21;;;;;;;2.50;2.40;;;27.50;54.30;;;;;;4969715;28;20467;-83
2023/06/29 02:31:51;;;;;;;3.10;2.90;;;27.50;54.20;;;;;;4957187;28;21191;-83
2023/06/29 02:34:22;;;;;;;3.30;2.67;;;27.50;54.30;;;;;;4967775;28;20471;-83
2023/06/29 02:36:50;;;;;;;2.93;2.73;;;27.40;54.40;;;;;;4971057;28;20476;-83
2023/06/29 02:39:18;;;;;;;2.33;2.17;;;27.40;54.40;;;;;;4965717;28;20470;-83
2023/06/29 02:41:47;;;;;;;2.90;2.37;;;27.40;54.30;;;;;;4957055;28;20474;-83
2023/06/29 02:44:15;;;;;;;2.53;2.43;;;27.40;54.30;;;;;;4983544;28;20467;-83
2023/06/29 02:46:43;;;;;;;2.70;2.50;;;27.40;54.40;;;;;;4975276;28;20506;-83
2023/06/29 02:49:14;;;;;;;2.90;2.70;;;27.40;54.40;;;;;;4968305;28;20471;-83
2023/06/29 02:51:44;;;;;;;3.33;2.67;;;27.40;54.30;;;;;;4965088;28;20466;-82
2023/06/29 02:54:16;;;;;;;3.30;3.00;;;27.40;54.40;;;;;;4973984;28;20515;-83
2023/06/29 02:56:44;;;;;;;3.10;2.70;;;27.40;54.30;;;;;;4971646;28;20469;-83
2023/06/29 02:59:12;;;;;;;3.07;2.87;;;27.40;54.30;;;;;;4956972;28;20470;-83
2023/06/29 03:01:40;;;;;;;4.63;3.30;;;27.40;54.40;;;;;;4971484;28;20477;-83
2023/06/29 03:04:08;;;;;;;2.80;2.60;;;27.40;54.30;;;;;;4944314;28;20498;-82
2023/06/29 03:06:37;;;;;;;5.80;2.70;;;27.40;54.30;;;;;;4963128;28;20466;-83
2023/06/29 03:09:06;;;;;;;2.83;2.63;;;27.30;54.40;;;;;;4957300;28;20462;-82
2023/06/29 03:11:35;;;;;;;3.43;3.13;;;27.30;54.30;;;;;;4961603;28;20463;-83
2023/06/29 03:14:03;;;;;;;2.90;2.70;;;27.30;54.20;;;;;;4971973;28;20458;-82
2023/06/29 03:16:31;;;;;;;4.23;2.70;;;27.30;54.20;;;;;;4973083;28;20473;-82
2023/06/29 03:18:59;;;;;;;2.73;2.53;;;27.30;54.30;;;;;;4968614;28;20500;-83
2023/06/29 03:21:28;;;;;;;2.23;2.13;;;27.30;54.30;;;;;;4974131;28;21000;-83
2023/06/29 03:23:56;;;;;;;2.53;2.43;;;27.30;54.30;;;;;;4973399;28;20530;-83
2023/06/29 03:26:25;;;;;;;2.80;2.60;;;27.30;54.30;;;;;;4975160;28;20465;-83
2023/06/29 03:28:53;;;;;;;3.37;3.07;;;27.30;54.30;;;;;;4956391;28;20521;-83
2023/06/29 03:31:22;;;;;;;2.37;2.27;;;27.30;54.40;;;;;;4972015;28;20468;-82
2023/06/29 03:33:50;;;;;;;3.13;2.93;;;27.30;54.40;;;;;;4973868;28;20442;-82
2023/06/29 03:36:19;;;;;;;3.10;2.90;;;27.30;54.10;;;;;;4974597;28;20458;-82
2023/06/29 03:38:47;;;;;;;3.87;3.27;;;27.30;54.10;;;;;;4972919;28;20540;-82
2023/06/29 03:41:15;;;;;;;2.97;2.80;;;27.20;54.10;;;;;;4972506;28;20488;-82
2023/06/29 03:43:44;;;;;;;3.40;3.20;;;27.20;54.10;;;;;;4973742;28;20950;-82
2023/06/29 03:46:13;;;;;;;2.80;2.67;;;27.20;54.10;;;;;;4971522;28;20512;-82
2023/06/29 03:48:41;;;;;;;2.97;2.77;;;27.20;54.10;;;;;;4971091;28;20473;-82
2023/06/29 03:51:09;;;;;;;3.00;2.83;;;27.10;54.20;;;;;;4970578;28;20480;-82
2023/06/29 03:53:37;;;;;;;3.60;3.30;;;27.10;54.20;;;;;;4972814;28;20467;-82
2023/06/29 03:56:05;;;;;;;2.60;2.40;;;27.10;54.20;;;;;;4972413;28;20523;-82
2023/06/29 03:58:33;;;;;;;3.60;3.10;;;27.10;54.20;;;;;;4958271;28;20465;-83
2023/06/29 04:01:03;;;;;;;3.10;2.90;;;27.10;54.10;;;;;;4966546;28;20457;-82
2023/06/29 04:03:31;;;;;;;3.23;3.03;;;27.00;54.20;;;;;;4973726;28;20455;-82
2023/06/29 04:06:00;;;;;;;3.30;3.10;;;27.00;54.30;;;;;;4969243;28;20568;-82
2023/06/29 04:08:28;;;;;;;4.50;3.07;;;27.00;54.20;;;;;;4971506;28;20497;-82
2023/06/29 04:10:56;;;;;;;2.70;2.50;;;27.00;54.30;;;;;;4973710;28;20473;-82
2023/06/29 04:13:24;;;;;;;3.03;2.83;;;27.00;54.40;;;;;;4971468;28;20522;-82
2023/06/29 04:15:53;;;;;;;3.50;3.20;;;27.00;54.40;;;;;;4972634;28;20901;-82
2023/06/29 04:18:23;;;;;;;4.10;2.70;;;27.00;54.50;;;;;;4967250;28;20467;-82
2023/06/29 04:20:53;;;;;;;2.83;2.63;;;27.00;54.50;;;;;;4973305;28;20461;-82
2023/06/29 04:23:21;;;;;;;2.70;2.50;;;27.00;54.50;;;;;;4974070;28;20468;-82
2023/06/29 04:25:49;;;;;;;2.70;2.50;;;27.00;54.50;;;;;;4969764;28;20509;-82
2023/06/29 04:28:17;;;;;;;3.70;2.50;;;27.10;54.50;;;;;;4971479;28;20465;-82
2023/06/29 04:30:46;;;;;;;2.90;2.70;;;27.10;54.60;;;;;;4970258;28;20469;-82
2023/06/29 04:33:15;;;;;;;2.60;2.40;;;27.10;54.60;;;;;;4971885;28;20442;-82
2023/06/29 04:35:45;;;;;;;3.07;2.77;;;27.10;54.60;;;;;;4969020;28;20457;-82
2023/06/29 04:38:14;;;;;;;2.80;2.70;;;27.10;54.40;;;;;;4968961;28;20461;-82
2023/06/29 04:40:43;;;;;;;2.90;2.70;;;27.10;54.40;;;;;;4952844;28;20552;-82
2023/06/29 04:43:12;;;;;;;2.77;2.53;;;27.10;54.40;;;;;;4970131;28;20962;-82
2023/06/29 04:45:40;;;;;;;2.90;2.70;;;27.10;54.50;;;;;;4970989;28;20490;-82
2023/06/29 04:48:10;;;;;;;2.97;2.70;;;27.00;54.70;;;;;;4971340;28;20466;-82
2023/06/29 04:50:38;;;;;;;3.83;3.50;;;27.00;54.80;;;;;;4970342;28;20459;-82
2023/06/29 04:53:09;;;;;;;3.37;3.07;;;27.00;54.80;;;;;;4955233;28;20860;-82
2023/06/29 04:55:39;;;;;;;2.93;2.80;;;27.00;54.80;;;;;;4966420;28;20477;-82
2023/06/29 04:58:08;;;;;;;2.80;2.60;;;27.00;54.80;;;;;;4966665;28;20477;-82
2023/06/29 05:00:36;;;;;;;3.13;2.90;;;27.10;54.80;;;;;;4966891;28;20476;-82
2023/06/29 05:03:04;;;;;;;2.87;2.67;;;27.10;54.90;;;;;;4970626;28;20469;-83
2023/06/29 05:05:32;;;;;;;2.73;2.53;;;27.10;54.90;;;;;;4970183;28;20476;-80
2023/06/29 05:08:01;;;;;;;2.90;2.70;;;27.10;54.90;;;;;;4965955;28;20503;-81
2023/06/29 05:10:30;;;;;;;2.77;2.60;;;27.10;54.90;;;;;;4969405;28;21359;-81
2023/06/29 05:12:58;;;;;;;3.10;2.90;;;27.10;55.00;;;;;;4968489;28;20517;-82
2023/06/29 05:15:26;;;;;;;2.87;2.67;;;27.10;55.00;;;;;;4965763;28;20461;-82
2023/06/29 05:17:55;;;;;;;4.00;3.73;;;27.10;55.00;;;;;;4965691;28;20526;-82
2023/06/29 05:20:23;;;;;;;2.90;2.70;;;27.20;55.00;;;;;;4969957;28;20464;-82
2023/06/29 05:22:51;;;;;;;3.20;3.00;;;27.20;55.00;;;;;;4940579;28;20938;-83
2023/06/29 05:25:19;;;;;;;3.27;3.03;;;27.20;55.10;;;;;;4961081;28;21052;-82
2023/06/29 05:27:49;;;;;;;3.30;3.10;;;27.20;55.10;;;;;;4959540;28;20982;-81
2023/06/29 05:30:17;;;;;;;3.13;2.80;;;27.20;55.10;;;;;;4962925;28;20470;-81
2023/06/29 05:32:45;;;;;;;2.60;2.50;;;27.20;55.00;;;;;;4962513;28;20508;-81
2023/06/29 05:35:14;;;;;;;4.47;4.13;;;27.20;55.00;;;;;;4963912;28;20474;-80
2023/06/29 05:37:42;;;;;;;3.40;3.10;;;27.20;55.00;;;;;;4960075;28;20470;-81
2023/06/29 05:40:11;;;;;;;3.07;2.87;;;27.20;55.00;;;;;;4964782;28;20462;-81
2023/06/29 05:42:40;;;;;;;3.60;3.40;;;27.20;55.10;;;;;;4966182;28;21097;-81
2023/06/29 05:45:10;;;;;;;3.20;3.00;;;27.20;55.00;;;;;;4965962;28;21273;-81
2023/06/29 05:47:38;;;;;;;3.20;2.97;;;27.30;55.10;;;;;;4953718;28;20537;-82
2023/06/29 05:50:07;;;;;;;3.63;3.33;;;27.30;55.10;;;;;;4966143;28;20466;-81
2023/06/29 05:52:37;;;;;;;3.30;2.97;;;27.30;55.10;;;;;;4970880;28;20469;-81
2023/06/29 05:55:06;;;;;;;4.10;3.30;;;27.30;55.10;;;;;;4968966;28;21013;-81
2023/06/29 05:57:34;;;;;;;3.47;3.20;;;27.30;55.10;;;;;;4967699;28;20607;-81
2023/06/29 06:00:08;;;;;;;3.97;3.57;;;27.30;55.10;;;;;;4969924;28;20540;-81
2023/06/29 06:02:39;;;;;;;4.03;3.40;;;27.30;55.10;;;;;;4970193;28;20461;-81
2023/06/29 06:05:08;;;;;;;3.43;3.20;;;27.30;55.20;;;;;;4968652;28;20465;-81
2023/06/29 06:07:36;;;;;;;3.37;3.10;;;27.30;55.20;;;;;;4970370;28;20565;-81
2023/06/29 06:10:06;;;;;;;3.23;3.03;;;27.30;55.20;;;;;;4969804;28;20463;-81
2023/06/29 06:12:35;;;;;;;3.33;3.13;;;27.30;55.20;;;;;;4968486;28;20527;-81
2023/06/29 06:15:04;;;;;;;3.60;3.30;;;27.40;55.20;;;;;;4969624;28;20493;-81
2023/06/29 06:17:32;;;;;;;3.50;3.07;;;27.40;55.20;;;;;;4967567;28;20462;-81
2023/06/29 06:20:01;;;;;;;2.93;2.73;;;27.40;55.20;;;;;;4967066;28;20464;-81
2023/06/29 06:22:30;;;;;;;3.30;3.00;;;27.40;55.20;;;;;;4963780;28;20467;-81
2023/06/29 06:24:58;;;;;;;3.63;3.43;;;27.40;55.20;;;;;;4963444;28;20470;-81
2023/06/29 06:27:26;;;;;;;3.43;3.23;;;27.40;55.20;;;;;;4968671;28;20903;-81
2023/06/29 06:29:54;;;;;;;4.07;3.77;;;27.40;55.30;;;;;;4970278;28;20469;-81
2023/06/29 06:32:24;;;;;;;2.47;2.27;;;27.40;55.30;;;;;;4968938;28;20548;-81
2023/06/29 06:34:52;;;;;;;4.30;3.90;;;27.40;55.30;;;;;;4966048;28;20463;-81
2023/06/29 06:37:22;;;;;;;3.33;3.13;;;27.40;55.30;;;;;;4969079;28;20554;-81
2023/06/29 06:39:50;;;;;;;3.10;2.90;;;27.40;55.30;;;;;;4968451;28;20470;-81
2023/06/29 06:42:18;;;;;;;3.67;3.47;;;27.40;55.30;;;;;;4971233;28;21049;-81
2023/06/29 06:44:54;;;;;;;3.37;3.17;;;27.50;55.30;;;;;;4968717;28;20487;-81
2023/06/29 06:47:23;;;;;;;3.30;3.00;;;27.50;55.30;;;;;;4967761;28;20490;-81
2023/06/29 06:49:51;;;;;;;3.73;3.43;;;27.50;55.30;;;;;;4967872;28;20475;-82
2023/06/29 06:52:19;;;;;;;3.40;3.20;;;27.50;55.30;;;;;;4969961;28;20561;-82
2023/06/29 06:54:50;;;;;;;3.53;3.33;;;27.50;55.30;;;;;;4968911;28;20585;-83
2023/06/29 06:57:19;;;;;;;3.10;2.90;;;27.50;55.30;;;;;;4954398;28;20471;-82
2023/06/29 06:59:47;;;;;;;3.13;2.93;;;27.50;55.30;;;;;;4970220;28;20470;-82
2023/06/29 07:02:15;;;;;;;2.80;2.70;;;27.50;55.30;;;;;;4958924;28;20979;-83
2023/06/29 07:04:44;;;;;;;3.83;3.53;;;27.50;55.30;;;;;;4970456;28;20466;-83
2023/06/29 07:07:12;;;;;;;3.67;3.33;;;27.50;55.30;;;;;;4969513;28;20507;-83
2023/06/29 07:09:40;;;;;;;3.23;3.03;;;27.60;55.30;;;;;;4968015;28;20469;-83
2023/06/29 07:12:11;;;;;;;2.80;2.60;;;27.60;55.30;;;;;;4966857;28;20503;-83
2023/06/29 07:14:39;;;;;;;3.13;2.93;;;27.50;55.30;;;;;;4968450;28;20965;-83
2023/06/29 07:17:07;;;;;;;4.23;3.13;;;27.60;55.30;;;;;;4966433;28;20499;-83
2023/06/29 07:19:35;;;;;;;3.30;3.10;;;27.60;55.30;;;;;;4965650;28;20553;-83
2023/06/29 07:22:07;;;;;;;3.47;3.27;;;27.60;55.30;;;;;;4967397;28;20468;-83
2023/06/29 07:24:38;;;;;;;3.17;2.97;;;27.60;55.30;;;;;;4969156;28;20465;-83
2023/06/29 07:27:07;;;;;;;3.30;3.10;;;27.60;55.40;;;;;;4969079;28;20490;-83
2023/06/29 07:29:37;;;;;;;3.60;3.30;;;27.60;55.30;;;;;;4951849;28;20574;-83
2023/06/29 07:32:06;;;;;;;3.27;3.07;;;27.60;55.30;;;;;;4964106;28;20485;-83
2023/06/29 07:34:34;;;;;;;3.27;3.07;;;27.60;55.40;;;;;;4964834;28;23099;-83
2023/06/29 07:37:02;;;;;;;3.40;3.20;;;27.60;55.30;;;;;;4970781;28;20557;-83
2023/06/29 07:39:30;;;;;;;3.40;3.20;;;27.60;55.40;;;;;;4965298;28;21324;-83
2023/06/29 07:41:58;;;;;;;3.17;2.97;;;27.60;55.40;;;;;;4966455;28;20463;-83
2023/06/29 07:44:27;;;;;;;3.37;3.17;;;27.70;55.30;;;;;;4967403;28;20459;-84
2023/06/29 07:46:56;;;;;;;3.40;3.20;;;27.70;55.20;;;;;;4966237;28;20513;-83
2023/06/29 07:49:25;;;;;;;3.47;3.27;;;27.70;55.30;;;;;;4952726;28;20965;-84
2023/06/29 07:51:53;;;;;;;3.03;2.83;;;27.70;55.30;;;;;;4971657;28;20590;-84
2023/06/29 07:54:21;;;;;;;3.20;3.00;;;27.70;55.20;;;;;;4963431;28;20463;-84
2023/06/29 07:56:49;;;;;;;3.73;3.50;;;27.70;55.20;;;;;;4961712;28;20467;-84
2023/06/29 07:59:20;;;;;;;3.47;3.27;;;27.70;55.30;;;;;;4965331;28;20490;-82
2023/06/29 08:01:49;;;;;;;3.00;2.80;;;27.70;55.30;;;;;;4960515;28;20539;-82
2023/06/29 08:04:19;;;;;;;3.20;3.00;;;27.70;55.30;;;;;;4953526;28;20714;-81
2023/06/29 08:07:07;;;;;;;3.03;2.83;;;27.70;55.30;;;;;;4951682;28;20881;-82
2023/06/29 08:09:38;;;;;;;3.73;3.40;;;27.70;55.30;;;;;;4966439;28;20516;-81
2023/06/29 08:12:07;;;;;;;3.10;2.90;;;27.70;55.30;;;;;;4963608;28;20482;-82
2023/06/29 08:14:35;;;;;;;2.90;2.70;;;27.70;55.30;;;;;;4960119;28;20472;-82
2023/06/29 08:17:04;;;;;;;2.77;2.57;;;27.70;55.30;;;;;;4957905;28;20482;-82
2023/06/29 08:19:33;;;;;;;2.97;2.77;;;27.70;55.30;;;;;;4953917;28;20490;-82
2023/06/29 08:22:02;;;;;;;3.03;2.83;;;27.70;55.30;;;;;;4962366;28;20486;-81
2023/06/29 08:24:30;;;;;;;3.20;3.00;;;27.70;55.30;;;;;;4961993;28;20487;-88
2023/06/29 08:26:59;;;;;;;3.30;3.10;;;27.70;55.30;;;;;;4958762;28;20484;-82
2023/06/29 08:29:28;;;;;;;3.00;2.80;;;27.70;56.00;;;;;;4974528;28;20496;-80
2023/06/29 08:31:56;;;;;;;3.27;3.07;;;27.70;56.40;;;;;;4973210;28;20529;-79
2023/06/29 08:34:24;;;;;;;3.63;3.40;;;27.80;56.40;;;;;;4971552;28;20466;-81
2023/06/29 08:36:54;;;;;;;3.30;3.10;;;27.80;56.40;;;;;;4971934;28;20514;-78
2023/06/29 08:39:22;;;;;;;3.97;3.40;;;27.80;56.40;;;;;;4968322;28;21014;-78
2023/06/29 08:41:50;;;;;;;5.93;3.57;;;27.80;56.50;;;;;;4972228;28;20554;-79
2023/06/29 08:44:19;;;;;;;3.67;3.47;;;27.80;56.60;;;;;;4971640;28;20876;-79
2023/06/29 08:46:49;;;;;;;3.37;3.17;;;27.90;56.70;;;;;;4969153;28;20507;-80
2023/06/29 08:49:21;;;;;;;3.40;3.00;;;27.90;56.70;;;;;;4972257;28;20519;-81
2023/06/29 08:51:56;;;;;;;3.07;2.87;;;27.90;56.70;;;;;;4974258;28;20451;-80
2023/06/29 08:54:26;;;;;;;3.30;3.00;;;27.90;56.70;;;;;;4974818;28;20502;-81
2023/06/29 08:56:56;;;;;;;3.70;3.50;;;27.90;56.60;;;;;;4970683;28;20968;-79
2023/06/29 08:59:25;;;;;;;4.40;3.03;;;27.90;56.60;;;;;;4970252;28;20968;-77
2023/06/29 09:01:54;;;;;;;3.30;3.10;;;28.00;56.40;;;;;;4971146;28;20549;-77
2023/06/29 09:04:24;;;;;;;3.50;3.30;;;28.00;56.60;;;;;;4970967;28;20915;-78
2023/06/29 09:06:54;;;;;;;3.53;3.33;;;28.00;56.60;;;;;;4969835;28;21256;-79
2023/06/29 09:09:23;;;;;;;3.37;3.07;;;28.00;56.40;;;;;;4969814;28;21058;-80
2023/06/29 09:11:52;;;;;;;3.50;3.30;;;28.00;56.50;;;;;;4954380;28;21475;-78
2023/06/29 09:14:20;;;;;;;3.50;3.17;;;28.00;56.40;;;;;;4970722;28;20460;-79
2023/06/29 09:16:51;;;;;;;3.90;3.53;;;28.10;56.30;;;;;;4969122;28;20734;-79
2023/06/29 09:19:20;;;;;;;2.90;2.70;;;28.10;56.30;;;;;;4969474;28;20486;-80
2023/06/29 09:21:49;;;;;;;3.33;3.13;;;28.10;56.20;;;;;;4952529;28;20461;-80
2023/06/29 09:24:19;;;;;;;3.27;3.07;;;28.10;56.10;;;;;;4972035;28;20472;-79
2023/06/29 09:26:50;;;;;;;2.90;2.70;;;28.10;56.10;;;;;;4973735;28;20468;-80
2023/06/29 09:29:18;;;;;;;3.00;2.80;;;28.10;56.20;;;;;;4973678;28;20534;-79
2023/06/29 09:31:55;;;;;;;3.27;3.07;;;28.10;56.10;;;;;;4970890;28;20468;-78
2023/06/29 09:34:26;;;;;;;3.53;3.27;;;28.10;56.10;;;;;;4971508;28;20486;-79
2023/06/29 09:36:55;;;;;;;3.20;3.00;;;28.20;56.10;;;;;;4968682;28;20476;-79
2023/06/29 09:39:26;;;;;;;3.13;2.93;;;28.20;56.00;;;;;;4971505;28;21024;-79
2023/06/29 09:41:56;;;;;;;3.33;3.13;;;28.20;55.90;;;;;;4969663;28;20458;-80
2023/06/29 09:44:25;;;;;;;4.17;3.80;;;28.20;56.00;;;;;;4970200;28;20551;-80
2023/06/29 09:47:05;;;;;;;3.40;3.20;;;28.20;56.00;;;;;;4970719;28;20497;-80
2023/06/29 09:49:45;;;;;;;3.23;2.93;;;28.20;56.00;;;;;;4971346;28;20455;-79
2023/06/29 09:52:14;;;;;;;3.10;2.90;;;28.20;55.90;;;;;;4968119;28;20486;-80
2023/06/29 09:54:43;;;;;;;2.90;2.80;;;28.20;55.90;;;;;;4974079;28;20881;-80
2023/06/29 09:57:12;;;;;;;3.30;3.10;;;28.20;55.80;;;;;;4969842;28;20454;-80
2023/06/29 09:59:44;;;;;;;2.80;2.70;;;28.30;55.70;;;;;;4969192;28;20481;-80
2023/06/29 10:02:13;;;;;;;3.53;3.23;;;28.30;55.60;;;;;;4969854;28;20464;-80
2023/06/29 10:04:42;;;;;;;3.20;3.00;;;28.30;55.60;;;;;;4971493;28;20476;-79
2023/06/29 10:07:15;;;;;;;3.30;3.00;;;28.30;55.50;;;;;;4969782;28;20866;-79
2023/06/29 10:09:47;;;;;;;3.40;3.20;;;28.30;55.40;;;;;;4972604;28;20459;-80
2023/06/29 10:12:18;;;;;;;3.63;3.40;;;28.30;55.50;;;;;;4973922;28;20466;-80
2023/06/29 10:14:47;;;;;;;3.17;2.87;;;28.40;55.60;;;;;;4966067;28;20499;-78
2023/06/29 10:17:20;;;;;;;2.80;2.60;;;28.40;55.50;;;;;;4967378;28;20532;-79
2023/06/29 10:19:51;;;;;;;3.40;3.10;;;28.50;55.40;;;;;;4972913;28;20458;-79
2023/06/29 10:22:22;;;;;;;3.47;3.20;;;28.50;55.40;;;;;;4972331;28;20495;-80
2023/06/29 10:24:55;;;;;;;3.60;3.40;;;28.50;55.30;;;;;;4968346;28;20460;-80
2023/06/29 10:27:30;;;;;;;3.13;2.93;;;28.50;55.30;;;;;;4969208;28;20527;-81
2023/06/29 10:30:04;;;;;;;3.20;3.00;;;28.50;55.40;;;;;;4975373;28;20864;-81
2023/06/29 10:32:33;;;;;;;3.30;3.00;;;28.60;55.30;;;;;;4976049;28;20464;-81
2023/06/29 10:35:05;;;;;;;4.00;3.40;;;28.60;55.30;;;;;;4969656;28;20465;-80
2023/06/29 10:37:35;;;;;;;3.90;3.70;;;28.60;55.20;;;;;;4972325;28;21208;-81
2023/06/29 10:40:13;;;;;;;2.67;2.47;;;28.60;55.20;;;;;;4969745;28;20589;-81
2023/06/29 10:43:02;;;;;;;3.17;2.97;;;28.60;55.10;;;;;;4972370;28;20483;-82
2023/06/29 10:45:34;;;;;;;3.13;2.93;;;28.60;54.90;;;;;;4962224;28;20484;-83
2023/06/29 10:48:06;;;;;;;3.63;3.33;;;28.60;54.90;;;;;;4970589;28;20483;-83
2023/06/29 10:50:44;;;;;;;3.20;3.00;;;28.60;54.90;;;;;;4972405;28;20507;-82
2023/06/29 10:53:14;;;;;;;3.53;3.33;;;28.50;54.90;;;;;;4972813;28;20532;-83
2023/06/29 10:55:51;;;;;;;2.73;2.63;;;28.50;54.90;;;;;;4958053;28;20473;-82
2023/06/29 10:58:21;;;;;;;3.80;3.20;;;28.50;55.00;;;;;;4971979;28;20546;-83
2023/06/29 11:00:52;;;;;;;3.07;2.87;;;28.50;55.00;;;;;;4973839;28;20463;-82
2023/06/29 11:03:21;;;;;;;3.17;2.93;;;28.50;55.00;;;;;;4972178;28;20516;-81
2023/06/29 11:05:50;;;;;;;3.00;2.80;;;28.50;55.00;;;;;;4968852;28;20472;-81
2023/06/29 11:08:21;;;;;;;2.80;2.60;;;28.50;54.90;;;;;;4972760;28;20532;-81
2023/06/29 11:10:51;;;;;;;2.53;2.40;;;28.50;54.70;;;;;;4968699;28;20556;-80
2023/06/29 11:13:21;;;;;;;2.57;2.37;;;28.50;54.30;;;;;;4971832;28;20475;-80
2023/06/29 11:15:57;;;;;;;2.77;2.57;;;28.40;54.00;;;;;;4971852;28;20465;-79
2023/06/29 11:18:31;;;;;;;2.50;2.30;;;28.40;53.90;;;;;;4961527;28;20468;-80
2023/06/29 11:21:01;;;;;;;3.03;2.83;;;28.40;53.80;;;;;;4977340;28;20500;-80
2023/06/29 11:23:29;;;;;;;2.77;2.57;;;28.40;53.70;;;;;;4972557;28;20477;-80
2023/06/29 11:26:01;;;;;;;2.90;2.70;;;28.40;53.60;;;;;;4972865;28;20505;-80
2023/06/29 11:28:32;;;;;;;2.60;2.43;;;28.40;53.60;;;;;;4970855;28;20561;-81
2023/06/29 11:31:01;;;;;;;2.10;2.00;;;28.40;53.50;;;;;;4971743;28;20448;-80
2023/06/29 11:33:29;;;;;;;2.20;2.10;;;28.40;53.50;;;;;;4968352;28;20650;-81
2023/06/29 11:36:02;;;;;;;3.00;2.80;;;28.40;53.40;;;;;;4960980;28;20463;-82
2023/06/29 11:38:30;;;;;;;3.13;2.93;;;28.40;53.40;;;;;;4968751;28;20560;-82
2023/06/29 11:41:07;;;;;;;3.23;3.07;;;28.40;53.40;;;;;;4971370;28;20467;-83
2023/06/29 11:43:36;;;;;;;3.03;2.83;;;28.40;53.40;;;;;;4969683;28;20476;-82
2023/06/29 11:46:04;;;;;;;2.90;2.70;;;28.40;53.50;;;;;;4967643;28;20472;-81
2023/06/29 11:48:32;;;;;;;2.97;2.73;;;28.40;54.10;;;;;;4964288;28;21002;-82
2023/06/29 11:51:01;;;;;;;3.00;2.80;;;28.40;54.00;;;;;;4975125;28;20456;-82
2023/06/29 11:53:30;;;;;;;3.90;2.97;;;28.40;54.00;;;;;;4962580;28;20473;-82
2023/06/29 11:55:58;;;;;;;3.20;3.00;;;28.40;54.00;;;;;;4972239;28;21187;-82
2023/06/29 11:58:34;;;;;;;2.90;2.70;;;28.40;54.10;;;;;;4969516;28;20460;-82
2023/06/29 12:01:02;;;;;;;5.53;3.20;;;28.50;54.20;;;;;;4969631;28;20465;-82
2023/06/29 12:03:31;;;;;;;4.13;3.37;;;28.60;54.30;;;;;;4951697;28;20852;-84
2023/06/29 12:06:01;;;;;;;2.90;2.63;;;28.70;54.20;;;;;;4969239;28;20556;-83
2023/06/29 12:08:38;;;;;;;3.40;3.10;;;28.70;54.10;;;;;;4969462;28;20501;-83
2023/06/29 12:11:07;;;;;;;3.57;3.30;;;28.90;54.20;;;;;;4970142;28;20550;-82
2023/06/29 12:13:43;;;;;;;3.43;3.13;;;29.00;54.20;;;;;;4967458;28;20464;-82
2023/06/29 12:16:11;;;;;;;3.60;3.30;;;29.10;54.10;;;;;;4969177;28;20520;-82
2023/06/29 12:18:43;;;;;;;3.10;2.90;;;29.20;53.90;;;;;;4967602;28;20553;-83
2023/06/29 12:21:18;;;;;;;3.83;3.47;;;29.40;53.90;;;;;;4973056;28;20523;-82
2023/06/29 12:23:47;;;;;;;2.83;2.50;;;29.50;53.80;;;;;;4972439;28;20470;-82
2023/06/29 12:26:16;;;;;;;2.47;2.37;;;29.70;53.40;;;;;;4969222;28;20466;-85
2023/06/29 12:28:45;;;;;;;2.80;2.60;;;29.90;53.10;;;;;;4971870;28;20810;-84
2023/06/29 12:31:14;;;;;;;2.70;2.60;;;30.10;52.90;;;;;;4969224;28;20462;-83
2023/06/29 12:33:42;;;;;;;2.40;2.23;;;30.20;52.70;;;;;;4970789;28;20524;-83
2023/06/29 12:36:10;;;;;;;4.00;2.37;;;30.20;52.70;;;;;;4971378;28;20490;-84
2023/06/29 12:38:38;;;;;;;5.30;2.60;;;30.20;52.90;;;;;;4964027;28;20496;-83
2023/06/29 12:41:06;;;;;;;2.97;2.70;;;30.20;52.90;;;;;;4966914;28;20554;-82
2023/06/29 12:43:35;;;;;;;3.10;2.87;;;30.10;53.10;;;;;;4968779;28;20462;-82
2023/06/29 12:46:04;;;;;;;2.90;2.33;;;30.10;53.20;;;;;;4971135;28;20978;-85
2023/06/29 12:48:33;;;;;;;2.63;2.50;;;30.10;53.40;;;;;;4966533;28;20504;-82
2023/06/29 12:51:01;;;;;;;3.40;3.07;;;30.00;53.30;;;;;;4967560;28;20546;-84
2023/06/29 12:53:32;;;;;;;3.37;3.07;;;29.90;53.90;;;;;;4970387;28;20488;-85
2023/06/29 12:56:01;;;;;;;2.60;2.50;;;29.90;53.90;;;;;;4952935;28;20508;-82
2023/06/29 12:58:29;;;;;;;2.43;2.33;;;29.90;54.00;;;;;;4967308;28;20480;-83
2023/06/29 13:01:01;;;;;;;4.53;2.50;;;29.90;54.20;;;;;;4966435;28;20473;-82